sensor_id;sensor_type;location;lat;lon;timestamp;P1;durP1;ratioP1;P2;durP2;ratioP2
31686;SDS011;18285;51.330;4.946;2023-06-10T00:01:22;2.53;;;2.33;;
31686;SDS011;18285;51.330;4.946;2023-06-10T00:25:33;3.20;;;2.70;;
31686;SDS011;18285;51.330;4.946;2023-06-10T00:49:44;2.80;;;2.60;;
31686;SDS011;18285;51.330;4.946;2023-06-10T01:13:57;3.08;;;2.80;;
31686;SDS011;18285;51.330;4.946;2023-06-10T01:38:10;3.10;;;2.80;;
31686;SDS011;18285;51.330;4.946;2023-06-10T02:02:22;3.05;;;2.85;;
31686;SDS011;18285;51.330;4.946;2023-06-10T02:26:33;3.08;;;2.85;;
31686;SDS011;18285;51.330;4.946;2023-06-10T02:50:44;2.83;;;2.60;;
31686;SDS011;18285;51.330;4.946;2023-06-10T03:14:55;4.73;;;3.07;;
31686;SDS011;18285;51.330;4.946;2023-06-10T03:39:06;3.33;;;3.03;;
31686;SDS011;18285;51.330;4.946;2023-06-10T04:03:16;3.50;;;3.20;;
31686;SDS011;18285;51.330;4.946;2023-06-10T04:27:27;3.53;;;3.23;;
31686;SDS011;18285;51.330;4.946;2023-06-10T05:15:49;4.00;;;3.22;;
31686;SDS011;18285;51.330;4.946;2023-06-10T05:40:00;4.10;;;3.70;;
31686;SDS011;18285;51.330;4.946;2023-06-10T06:04:11;3.90;;;3.60;;
31686;SDS011;18285;51.330;4.946;2023-06-10T06:28:22;3.93;;;3.60;;
31686;SDS011;18285;51.330;4.946;2023-06-10T06:52:32;4.07;;;3.70;;
31686;SDS011;18285;51.330;4.946;2023-06-10T07:16:43;3.73;;;3.43;;
31686;SDS011;18285;51.330;4.946;2023-06-10T07:40:55;4.97;;;4.45;;
31686;SDS011;18285;51.330;4.946;2023-06-10T08:05:06;10.93;;;8.25;;
31686;SDS011;18285;51.330;4.946;2023-06-10T08:29:17;11.37;;;7.77;;
31686;SDS011;18285;51.330;4.946;2023-06-10T08:53:28;11.20;;;7.57;;
31686;SDS011;18285;51.330;4.946;2023-06-10T09:17:41;11.05;;;7.25;;
31686;SDS011;18285;51.330;4.946;2023-06-10T09:41:52;11.53;;;8.40;;
31686;SDS011;18285;51.330;4.946;2023-06-10T10:06:02;10.03;;;7.23;;
31686;SDS011;18285;51.330;4.946;2023-06-10T10:30:14;7.73;;;6.20;;
31686;SDS011;18285;51.330;4.946;2023-06-10T10:54:28;8.13;;;6.05;;
31686;SDS011;18285;51.330;4.946;2023-06-10T11:18:53;6.88;;;5.00;;
31686;SDS011;18285;51.330;4.946;2023-06-10T11:43:05;8.60;;;6.00;;
31686;SDS011;18285;51.330;4.946;2023-06-10T12:07:19;5.80;;;5.03;;
31686;SDS011;18285;51.330;4.946;2023-06-10T12:31:31;6.57;;;4.40;;
31686;SDS011;18285;51.330;4.946;2023-06-10T12:55:41;8.60;;;4.70;;
31686;SDS011;18285;51.330;4.946;2023-06-10T13:19:55;5.15;;;4.60;;
31686;SDS011;18285;51.330;4.946;2023-06-10T13:44:05;4.70;;;4.30;;
31686;SDS011;18285;51.330;4.946;2023-06-10T14:08:16;5.33;;;4.57;;
31686;SDS011;18285;51.330;4.946;2023-06-10T14:32:27;4.23;;;3.83;;
31686;SDS011;18285;51.330;4.946;2023-06-10T14:56:38;5.80;;;4.70;;
31686;SDS011;18285;51.330;4.946;2023-06-10T15:20:48;4.43;;;3.30;;
31686;SDS011;18285;51.330;4.946;2023-06-10T15:44:59;17.63;;;13.43;;
31686;SDS011;18285;51.330;4.946;2023-06-10T16:09:10;20.80;;;13.93;;
31686;SDS011;18285;51.330;4.946;2023-06-10T16:33:20;12.00;;;10.20;;
31686;SDS011;18285;51.330;4.946;2023-06-10T16:57:31;14.13;;;10.10;;
31686;SDS011;18285;51.330;4.946;2023-06-10T17:21:42;10.27;;;9.13;;
31686;SDS011;18285;51.330;4.946;2023-06-10T17:45:52;9.37;;;8.20;;
31686;SDS011;18285;51.330;4.946;2023-06-10T18:10:03;10.97;;;7.73;;
31686;SDS011;18285;51.330;4.946;2023-06-10T18:34:14;9.52;;;7.10;;
31686;SDS011;18285;51.330;4.946;2023-06-10T18:58:25;7.85;;;7.15;;
31686;SDS011;18285;51.330;4.946;2023-06-10T19:22:36;7.47;;;6.77;;
31686;SDS011;18285;51.330;4.946;2023-06-10T19:46:47;7.03;;;6.33;;
31686;SDS011;18285;51.330;4.946;2023-06-10T20:10:58;6.93;;;6.33;;
31686;SDS011;18285;51.330;4.946;2023-06-10T20:35:09;6.70;;;6.10;;
31686;SDS011;18285;51.330;4.946;2023-06-10T20:59:19;9.37;;;7.40;;
31686;SDS011;18285;51.330;4.946;2023-06-10T21:23:30;10.77;;;7.43;;
31686;SDS011;18285;51.330;4.946;2023-06-10T21:47:41;8.47;;;6.70;;
31686;SDS011;18285;51.330;4.946;2023-06-10T22:11:52;6.93;;;5.97;;
31686;SDS011;18285;51.330;4.946;2023-06-10T22:36:02;7.43;;;6.00;;
31686;SDS011;18285;51.330;4.946;2023-06-10T23:00:13;6.80;;;5.30;;
31686;SDS011;18285;51.330;4.946;2023-06-10T23:24:25;6.13;;;5.40;;
31686;SDS011;18285;51.330;4.946;2023-06-10T23:48:38;5.32;;;4.82;;
